createdAt,value
2019-01-30T00:01:01.981Z,9.03
2019-01-30T00:03:31.232Z,8.33
2019-01-30T00:06:00.496Z,8.60
2019-01-30T00:08:29.767Z,7.53
2019-01-30T00:10:59.009Z,8.47
2019-01-30T00:13:28.259Z,8.83
2019-01-30T00:15:57.497Z,8.83
2019-01-30T00:18:27.125Z,7.90
2019-01-30T00:20:56.386Z,9.20
2019-01-30T00:23:25.641Z,8.80
2019-01-30T00:25:54.881Z,8.20
2019-01-30T00:28:24.135Z,7.97
2019-01-30T00:30:53.461Z,8.10
2019-01-30T00:33:22.731Z,8.80
2019-01-30T00:35:51.978Z,8.53
2019-01-30T00:38:21.226Z,7.07
2019-01-30T00:40:50.495Z,7.70
2019-01-30T00:43:19.742Z,7.70
2019-01-30T00:45:48.996Z,8.80
2019-01-30T00:50:45.212Z,9.10
2019-01-30T00:53:14.520Z,8.17
2019-01-30T00:55:43.765Z,7.30
2019-01-30T00:58:13.085Z,8.40
2019-01-30T01:00:42.338Z,8.13
2019-01-30T01:03:11.568Z,7.33
2019-01-30T01:05:40.828Z,6.87
2019-01-30T01:08:10.269Z,7.53
2019-01-30T01:10:39.584Z,6.40
2019-01-30T01:13:08.877Z,7.40
2019-01-30T01:15:38.129Z,7.63
2019-01-30T01:18:07.368Z,7.87
2019-01-30T01:20:36.704Z,8.33
2019-01-30T01:23:06.092Z,7.97
2019-01-30T01:25:35.349Z,7.47
2019-01-30T01:28:06.186Z,6.80
2019-01-30T01:30:35.442Z,7.20
2019-01-30T01:33:04.686Z,7.27
2019-01-30T01:35:33.929Z,7.53
2019-01-30T01:38:03.198Z,7.80
2019-01-30T01:40:32.425Z,7.57
2019-01-30T01:43:01.667Z,7.87
2019-01-30T01:45:31.060Z,7.50
2019-01-30T01:48:00.354Z,7.23
2019-01-30T01:50:29.636Z,6.20
2019-01-30T01:52:58.899Z,7.70
2019-01-30T01:55:28.227Z,7.80
2019-01-30T01:57:57.556Z,7.40
2019-01-30T02:00:35.224Z,6.73
2019-01-30T02:02:57.998Z,7.10
2019-01-30T02:05:27.310Z,6.90
2019-01-30T02:07:56.668Z,7.90
2019-01-30T02:10:26.438Z,6.67
2019-01-30T02:12:55.753Z,6.37
2019-01-30T02:15:25.054Z,6.90
2019-01-30T02:17:54.644Z,6.50
2019-01-30T02:20:26.724Z,6.93
2019-01-30T02:22:56.040Z,7.20
2019-01-30T02:25:25.508Z,7.60
2019-01-30T02:27:54.743Z,7.47
2019-01-30T02:30:31.048Z,7.00
2019-01-30T02:33:00.283Z,8.27
2019-01-30T02:35:29.523Z,7.40
2019-01-30T02:37:58.758Z,7.43
2019-01-30T02:40:27.998Z,7.40
2019-01-30T02:42:57.338Z,7.77
2019-01-30T02:45:27.309Z,6.90
2019-01-30T02:47:56.568Z,6.80
2019-01-30T02:50:26.133Z,7.20
2019-01-30T02:52:55.458Z,7.37
2019-01-30T02:55:24.711Z,7.47
2019-01-30T02:57:54.009Z,7.80
2019-01-30T03:00:26.490Z,6.97
2019-01-30T03:02:56.058Z,7.50
2019-01-30T03:05:25.469Z,7.67
2019-01-30T03:07:54.713Z,7.03
2019-01-30T03:10:24.507Z,7.37
2019-01-30T03:12:54.141Z,7.17
2019-01-30T03:15:23.515Z,6.53
2019-01-30T03:17:52.837Z,6.30
2019-01-30T03:20:24.121Z,7.70
2019-01-30T03:22:53.898Z,8.43
2019-01-30T03:25:25.139Z,6.50
2019-01-30T03:27:54.520Z,7.33
2019-01-30T03:30:29.302Z,6.50
2019-01-30T03:32:59.207Z,7.10
2019-01-30T03:35:28.759Z,6.60
2019-01-30T03:37:58.075Z,6.97
2019-01-30T03:40:27.481Z,6.73
2019-01-30T03:42:56.750Z,7.67
2019-01-30T03:45:26.003Z,6.50
2019-01-30T03:47:55.281Z,5.77
2019-01-30T03:50:24.511Z,6.57
2019-01-30T03:52:53.744Z,7.33
2019-01-30T03:55:23.000Z,6.63
2019-01-30T03:57:52.229Z,6.73
2019-01-30T04:00:26.350Z,6.90
2019-01-30T04:02:55.825Z,7.30
2019-01-30T04:05:25.133Z,6.80
2019-01-30T04:07:54.391Z,6.77
2019-01-30T04:10:24.352Z,6.20
2019-01-30T04:12:53.649Z,5.47
2019-01-30T04:15:23.021Z,5.57
2019-01-30T04:17:52.346Z,5.40
2019-01-30T04:20:22.127Z,6.60
2019-01-30T04:22:51.433Z,6.30
2019-01-30T04:25:20.737Z,5.73
2019-01-30T04:27:49.971Z,5.13
2019-01-30T04:30:24.777Z,5.37
2019-01-30T04:32:54.087Z,5.30
2019-01-30T04:35:23.326Z,5.53
2019-01-30T04:37:52.556Z,5.23
2019-01-30T04:40:22.461Z,5.30
2019-01-30T04:42:57.335Z,5.63
2019-01-30T04:45:26.608Z,4.93
2019-01-30T04:47:55.864Z,5.47
2019-01-30T04:50:25.164Z,5.40
2019-01-30T04:52:54.400Z,5.73
2019-01-30T04:55:23.702Z,5.23
2019-01-30T04:57:53.088Z,4.70
2019-01-30T05:00:24.202Z,5.13
2019-01-30T05:02:53.541Z,5.00
2019-01-30T05:05:22.877Z,5.63
2019-01-30T05:07:52.371Z,5.40
2019-01-30T05:10:21.682Z,5.23
2019-01-30T05:12:50.996Z,4.67
2019-01-30T05:15:20.983Z,5.40
2019-01-30T05:17:50.308Z,5.60
2019-01-30T05:20:20.847Z,5.07
2019-01-30T05:22:50.084Z,5.40
2019-01-30T05:25:19.513Z,5.50
2019-01-30T05:27:48.825Z,6.10
2019-01-30T05:30:30.090Z,5.00
2019-01-30T05:32:59.341Z,5.93
2019-01-30T05:35:28.682Z,5.20
2019-01-30T05:37:58.095Z,6.13
2019-01-30T05:40:28.824Z,5.77
2019-01-30T05:42:58.133Z,4.93
2019-01-30T05:45:27.382Z,5.60
2019-01-30T05:47:56.640Z,5.00
2019-01-30T05:50:25.864Z,5.57
2019-01-30T05:52:55.094Z,5.00
2019-01-30T05:55:24.402Z,4.90
2019-01-30T05:57:53.616Z,5.70
2019-01-30T06:00:27.344Z,5.20
2019-01-30T06:02:56.670Z,5.67
2019-01-30T06:05:26.037Z,4.90
2019-01-30T06:07:55.344Z,5.20
2019-01-30T06:10:24.756Z,5.17
2019-01-30T06:12:54.059Z,5.10
2019-01-30T06:15:23.580Z,5.67
2019-01-30T06:17:52.904Z,4.83
2019-01-30T06:20:24.796Z,4.87
2019-01-30T06:22:54.700Z,5.03
2019-01-30T06:25:24.020Z,4.67
2019-01-30T06:27:53.428Z,4.80
2019-01-30T06:30:24.689Z,4.50
2019-01-30T06:32:54.006Z,4.63
2019-01-30T06:35:23.318Z,4.80
2019-01-30T06:37:52.684Z,4.83
2019-01-30T06:40:30.662Z,4.90
2019-01-30T06:43:02.422Z,5.13
2019-01-30T06:45:31.031Z,4.37
2019-01-30T06:48:00.354Z,4.57
2019-01-30T06:50:29.652Z,3.93
2019-01-30T06:52:58.908Z,4.83
2019-01-30T06:55:28.143Z,4.47
2019-01-30T06:57:57.381Z,4.40
2019-01-30T07:00:27.269Z,4.57
2019-01-30T07:02:57.745Z,4.43
2019-01-30T07:05:27.047Z,4.73
2019-01-30T07:07:56.308Z,4.63
2019-01-30T07:10:27.099Z,4.10
2019-01-30T07:12:56.417Z,4.60
2019-01-30T07:15:25.722Z,4.70
2019-01-30T07:17:55.042Z,3.93
2019-01-30T07:20:24.341Z,4.77
2019-01-30T07:22:53.637Z,5.20
2019-01-30T07:25:23.197Z,5.67
2019-01-30T07:27:52.519Z,4.40
2019-01-30T07:30:30.451Z,4.40
2019-01-30T07:32:59.756Z,4.57
2019-01-30T07:35:29.140Z,4.30
2019-01-30T07:37:58.895Z,4.10
2019-01-30T07:40:28.374Z,4.30
2019-01-30T07:42:57.621Z,4.60
2019-01-30T07:45:28.031Z,4.53
2019-01-30T07:47:57.316Z,4.80
2019-01-30T07:50:26.628Z,4.37
2019-01-30T07:52:58.676Z,5.07
2019-01-30T07:55:27.020Z,4.90
2019-01-30T07:57:56.257Z,5.97
2019-01-30T08:00:27.761Z,4.87
2019-01-30T08:02:57.072Z,5.00
2019-01-30T08:05:26.455Z,5.40
2019-01-30T08:07:55.857Z,5.57
2019-01-30T08:10:25.319Z,4.80
2019-01-30T08:12:54.641Z,5.50
2019-01-30T08:15:24.702Z,5.17
2019-01-30T08:17:54.129Z,5.23
2019-01-30T08:20:24.121Z,5.93
2019-01-30T08:22:53.737Z,4.80
2019-01-30T08:25:23.797Z,4.77
2019-01-30T08:27:53.567Z,5.10
2019-01-30T08:30:28.803Z,4.77
2019-01-30T08:33:04.692Z,4.93
2019-01-30T08:35:31.069Z,4.23
2019-01-30T08:38:00.298Z,3.77
2019-01-30T08:40:29.881Z,3.67
2019-01-30T08:42:59.179Z,4.17
2019-01-30T08:45:29.878Z,3.37
2019-01-30T08:47:59.291Z,3.43
2019-01-30T08:50:29.107Z,4.13
2019-01-30T08:52:58.412Z,4.30
2019-01-30T08:55:27.973Z,3.87
2019-01-30T08:57:57.403Z,4.27
2019-01-30T09:00:28.312Z,4.50
2019-01-30T09:02:57.621Z,4.67
2019-01-30T09:05:26.971Z,4.23
2019-01-30T09:07:56.370Z,3.53
2019-01-30T09:10:27.363Z,3.93
2019-01-30T09:12:56.597Z,4.57
2019-01-30T09:15:28.138Z,5.37
2019-01-30T09:17:57.614Z,5.10
2019-01-30T09:20:27.382Z,5.57
2019-01-30T09:22:56.617Z,5.40
2019-01-30T09:25:28.650Z,4.77
2019-01-30T09:27:58.890Z,5.40
2019-01-30T09:30:36.180Z,5.20
2019-01-30T09:33:07.331Z,4.47
2019-01-30T09:35:36.603Z,4.50
2019-01-30T09:38:06.426Z,4.33
2019-01-30T09:40:35.856Z,4.27
2019-01-30T09:43:05.278Z,3.53
2019-01-30T09:45:34.603Z,5.20
2019-01-30T09:48:04.099Z,4.70
2019-01-30T09:50:34.276Z,4.70
2019-01-30T09:53:04.303Z,3.93
2019-01-30T09:55:33.679Z,3.97
2019-01-30T09:58:02.907Z,4.40
2019-01-30T10:00:34.734Z,3.87
2019-01-30T10:03:04.164Z,4.67
2019-01-30T10:05:33.723Z,4.33
2019-01-30T10:08:03.048Z,5.10
2019-01-30T10:10:34.422Z,4.30
2019-01-30T10:13:04.114Z,5.03
2019-01-30T10:15:35.778Z,5.00
2019-01-30T10:18:05.479Z,5.23
2019-01-30T10:20:36.228Z,4.50
2019-01-30T10:23:05.997Z,4.10
2019-01-30T10:25:35.454Z,4.47
2019-01-30T10:28:15.883Z,3.70
2019-01-30T10:30:42.638Z,4.43
2019-01-30T10:33:11.943Z,4.07
2019-01-30T10:35:41.412Z,4.17
2019-01-30T10:38:10.719Z,3.30
2019-01-30T10:40:39.929Z,3.50
2019-01-30T10:43:09.260Z,3.53
2019-01-30T10:45:38.550Z,3.80
2019-01-30T10:48:08.003Z,4.03
2019-01-30T10:50:37.294Z,4.27
2019-01-30T10:53:06.577Z,4.50
2019-01-30T10:55:36.832Z,4.20
2019-01-30T10:58:08.745Z,4.27
2019-01-30T11:00:46.584Z,4.93
2019-01-30T11:03:16.138Z,4.30
2019-01-30T11:05:45.457Z,4.20
2019-01-30T11:08:14.780Z,3.90
2019-01-30T11:10:44.086Z,5.03
2019-01-30T11:13:13.485Z,4.30
2019-01-30T11:15:42.782Z,4.80
2019-01-30T11:18:12.682Z,3.80
2019-01-30T11:20:42.067Z,4.07
2019-01-30T11:23:11.399Z,3.90
2019-01-30T11:25:43.648Z,3.53
2019-01-30T11:28:12.931Z,3.20
2019-01-30T11:30:42.264Z,3.63
2019-01-30T11:33:11.595Z,3.73
2019-01-30T11:35:40.851Z,3.20
2019-01-30T11:38:10.306Z,4.47
2019-01-30T11:40:39.547Z,3.80
2019-01-30T11:43:08.803Z,4.20
2019-01-30T11:45:40.287Z,3.40
2019-01-30T11:48:09.692Z,3.50
2019-01-30T11:50:39.555Z,3.23
2019-01-30T11:53:08.860Z,3.13
2019-01-30T11:55:38.954Z,3.40
2019-01-30T11:58:08.809Z,3.80
2019-01-30T12:00:39.757Z,3.57
2019-01-30T12:03:09.099Z,3.10
2019-01-30T12:05:38.334Z,3.03
2019-01-30T12:08:07.643Z,3.10
2019-01-30T12:10:36.868Z,3.13
2019-01-30T12:13:06.098Z,2.80
2019-01-30T12:15:35.481Z,2.90
2019-01-30T12:18:04.885Z,3.03
2019-01-30T12:20:34.185Z,3.70
2019-01-30T12:23:03.786Z,3.50
2019-01-30T12:25:33.029Z,2.87
2019-01-30T12:28:02.274Z,2.80
2019-01-30T12:30:31.597Z,3.30
2019-01-30T12:33:00.828Z,3.07
2019-01-30T12:35:30.134Z,2.47
2019-01-30T12:37:59.361Z,2.93
2019-01-30T12:40:28.600Z,3.03
2019-01-30T12:42:57.845Z,3.30
2019-01-30T12:45:38.061Z,2.90
2019-01-30T12:48:10.383Z,2.43
2019-01-30T12:50:39.047Z,3.07
2019-01-30T12:53:08.260Z,3.03
2019-01-30T12:55:37.646Z,3.40
2019-01-30T12:58:06.951Z,2.57
2019-01-30T13:00:39.023Z,2.90
2019-01-30T13:03:08.520Z,2.67
2019-01-30T13:05:37.904Z,3.50
2019-01-30T13:08:07.210Z,3.77
2019-01-30T13:10:36.537Z,2.83
2019-01-30T13:13:05.980Z,2.90
2019-01-30T13:15:35.234Z,2.67
2019-01-30T13:18:17.488Z,2.60
2019-01-30T13:20:36.144Z,3.67
2019-01-30T13:23:05.624Z,2.93
2019-01-30T13:25:34.862Z,2.70
2019-01-30T13:28:04.664Z,2.63
2019-01-30T13:30:35.911Z,2.40
2019-01-30T13:33:06.797Z,2.50
2019-01-30T13:35:36.196Z,2.30
2019-01-30T13:38:05.953Z,2.30
2019-01-30T13:40:37.193Z,1.90
2019-01-30T13:43:07.165Z,2.33
2019-01-30T13:45:36.512Z,2.50
2019-01-30T13:48:09.076Z,2.20
2019-01-30T13:50:38.490Z,2.13
2019-01-30T13:53:07.872Z,1.90
2019-01-30T13:55:37.254Z,1.70
2019-01-30T13:58:06.578Z,1.73
2019-01-30T14:00:37.658Z,2.30
2019-01-30T14:03:07.167Z,2.10
2019-01-30T14:05:36.626Z,1.67
2019-01-30T14:08:06.697Z,1.77
2019-01-30T14:10:35.923Z,1.63
2019-01-30T14:13:05.381Z,1.60
2019-01-30T14:15:34.865Z,1.90
2019-01-30T14:18:04.472Z,1.97
2019-01-30T14:20:33.965Z,2.17
2019-01-30T14:23:03.190Z,2.43
2019-01-30T14:25:32.452Z,1.73
2019-01-30T14:28:01.786Z,1.93
2019-01-30T14:30:33.530Z,1.73
2019-01-30T14:33:02.878Z,1.93
2019-01-30T14:35:33.794Z,2.20
2019-01-30T14:38:03.115Z,2.30
2019-01-30T14:40:32.537Z,2.43
2019-01-30T14:43:02.020Z,2.97
2019-01-30T14:45:31.358Z,2.53
2019-01-30T14:48:00.733Z,2.37
2019-01-30T14:50:30.155Z,2.77
2019-01-30T14:52:59.458Z,2.30
2019-01-30T14:55:28.845Z,2.40
2019-01-30T14:57:58.125Z,2.30
2019-01-30T15:00:32.055Z,2.20
2019-01-30T15:03:01.432Z,2.23
2019-01-30T15:05:31.046Z,2.20
2019-01-30T15:08:00.425Z,1.90
2019-01-30T15:10:30.716Z,1.97
2019-01-30T15:13:00.070Z,2.03
2019-01-30T15:15:31.491Z,1.90
2019-01-30T15:18:00.832Z,2.13
2019-01-30T15:20:32.737Z,2.10
2019-01-30T15:23:02.417Z,2.13
2019-01-30T15:25:31.901Z,2.20
2019-01-30T15:28:01.135Z,2.20
2019-01-30T15:30:35.936Z,2.27
2019-01-30T15:33:06.146Z,2.73
2019-01-30T15:35:35.507Z,2.27
2019-01-30T15:38:06.809Z,2.30
2019-01-30T15:40:36.104Z,2.20
2019-01-30T15:43:05.790Z,2.57
2019-01-30T15:45:35.172Z,2.30
2019-01-30T15:48:04.743Z,2.80
2019-01-30T15:50:39.320Z,2.00
2019-01-30T15:53:11.472Z,2.67
2019-01-30T15:55:40.768Z,2.50
2019-01-30T15:58:11.739Z,2.57
2019-01-30T16:00:46.716Z,2.60
2019-01-30T16:03:16.030Z,2.47
2019-01-30T16:05:45.501Z,2.50
2019-01-30T16:08:14.880Z,2.23
2019-01-30T16:10:44.883Z,2.33
2019-01-30T16:13:14.112Z,2.70
2019-01-30T16:15:46.408Z,2.80
2019-01-30T16:18:15.692Z,2.60
2019-01-30T16:20:44.944Z,2.33
2019-01-30T16:23:14.568Z,2.10
2019-01-30T16:25:43.815Z,2.13
2019-01-30T16:28:13.179Z,2.57
2019-01-30T16:30:42.576Z,2.00
2019-01-30T16:33:11.950Z,2.10
2019-01-30T16:35:41.177Z,2.50
2019-01-30T16:38:10.487Z,2.30
2019-01-30T16:40:39.866Z,2.23
2019-01-30T16:43:09.244Z,2.20
2019-01-30T16:45:38.468Z,2.30
2019-01-30T16:48:08.053Z,2.10
2019-01-30T16:50:37.364Z,1.90
2019-01-30T16:53:07.077Z,1.90
2019-01-30T16:55:37.979Z,1.90
2019-01-30T16:58:08.309Z,2.37
2019-01-30T17:00:39.972Z,2.67
2019-01-30T17:03:10.349Z,3.10
2019-01-30T17:05:39.763Z,3.67
2019-01-30T17:08:09.275Z,2.50
2019-01-30T17:10:38.870Z,3.03
2019-01-30T17:13:08.091Z,2.43
2019-01-30T17:15:39.758Z,1.97
2019-01-30T17:18:11.629Z,1.70
2019-01-30T17:20:41.633Z,2.20
2019-01-30T17:23:10.935Z,1.83
2019-01-30T17:25:40.515Z,2.60
2019-01-30T17:28:10.153Z,2.10
2019-01-30T17:30:42.273Z,1.60
2019-01-30T17:33:11.534Z,2.00
2019-01-30T17:35:41.729Z,1.97
2019-01-30T17:38:11.199Z,2.10
2019-01-30T17:40:41.193Z,2.10
2019-01-30T17:43:10.505Z,2.10
2019-01-30T17:45:39.813Z,2.30
2019-01-30T17:48:10.083Z,2.63
2019-01-30T17:50:39.406Z,2.57
2019-01-30T17:53:08.636Z,2.80
2019-01-30T17:55:37.875Z,1.80
2019-01-30T17:58:07.335Z,2.70
2019-01-30T18:00:47.063Z,2.20
2019-01-30T18:03:16.481Z,2.63
2019-01-30T18:05:46.247Z,1.77
2019-01-30T18:08:15.534Z,1.73
2019-01-30T18:10:44.771Z,3.00
2019-01-30T18:13:14.041Z,2.60
2019-01-30T18:15:43.391Z,3.40
2019-01-30T18:18:12.623Z,2.30
2019-01-30T18:20:42.007Z,2.97
2019-01-30T18:23:11.240Z,2.03
2019-01-30T18:25:40.669Z,2.53
2019-01-30T18:28:09.968Z,3.03
2019-01-30T18:30:39.215Z,3.60
2019-01-30T18:33:08.485Z,4.90
2019-01-30T18:35:37.798Z,4.20
2019-01-30T18:38:07.375Z,4.00
2019-01-30T18:40:36.617Z,4.63
2019-01-30T18:43:05.956Z,4.53
2019-01-30T18:45:35.245Z,3.50
2019-01-30T18:48:05.340Z,3.20
2019-01-30T18:50:34.571Z,2.57
2019-01-30T18:53:04.241Z,2.40
2019-01-30T18:55:33.565Z,2.60
2019-01-30T18:58:02.866Z,2.20
2019-01-30T19:00:37.486Z,2.27
2019-01-30T19:03:09.045Z,2.17
2019-01-30T19:05:38.651Z,1.83
2019-01-30T19:08:08.070Z,1.97
2019-01-30T19:10:37.451Z,1.60
2019-01-30T19:13:06.674Z,1.70
2019-01-30T19:15:36.162Z,2.00
2019-01-30T19:18:06.061Z,1.87
2019-01-30T19:20:43.822Z,1.73
2019-01-30T19:23:13.049Z,2.10
2019-01-30T19:25:42.453Z,1.90
2019-01-30T19:28:11.721Z,2.13
2019-01-30T19:30:40.970Z,1.93
2019-01-30T19:33:10.566Z,1.90
2019-01-30T19:35:39.875Z,2.90
2019-01-30T19:38:09.410Z,3.73
2019-01-30T19:40:38.654Z,3.20
2019-01-30T19:43:08.021Z,2.97
2019-01-30T19:45:37.446Z,3.17
2019-01-30T19:48:07.259Z,2.70
2019-01-30T19:50:36.586Z,2.60
2019-01-30T19:53:06.279Z,2.00
2019-01-30T19:55:35.668Z,2.20
2019-01-30T19:58:05.517Z,2.40
2019-01-30T20:00:37.648Z,2.50
2019-01-30T20:03:13.254Z,2.83
2019-01-30T20:05:42.786Z,2.83
2019-01-30T20:08:12.081Z,2.90
2019-01-30T20:10:41.733Z,2.73
2019-01-30T20:13:11.101Z,2.60
2019-01-30T20:15:40.350Z,2.60
2019-01-30T20:18:09.986Z,2.50
2019-01-30T20:20:39.314Z,2.33
2019-01-30T20:23:08.800Z,2.03
2019-01-30T20:25:40.048Z,1.90
2019-01-30T20:28:09.359Z,2.43
2019-01-30T20:30:38.917Z,2.00
2019-01-30T20:33:08.153Z,2.30
2019-01-30T20:35:37.383Z,2.30
2019-01-30T20:38:06.864Z,2.23
2019-01-30T20:40:36.276Z,2.40
2019-01-30T20:43:05.660Z,2.43
2019-01-30T20:45:34.978Z,2.60
2019-01-30T20:48:04.660Z,2.30
2019-01-30T20:50:33.973Z,2.40
2019-01-30T20:53:03.274Z,3.20
2019-01-30T20:55:32.575Z,2.20
2019-01-30T20:58:01.919Z,2.90
2019-01-30T21:00:36.724Z,3.40
2019-01-30T21:03:06.823Z,2.37
2019-01-30T21:05:36.062Z,4.97
2019-01-30T21:08:05.762Z,2.70
2019-01-30T21:10:39.532Z,2.60
2019-01-30T21:13:08.986Z,2.30
2019-01-30T21:15:38.380Z,2.90
2019-01-30T21:18:07.775Z,2.73
2019-01-30T21:20:36.992Z,2.83
2019-01-30T21:23:06.442Z,2.53
2019-01-30T21:25:35.665Z,2.50
2019-01-30T21:28:05.046Z,2.10
2019-01-30T21:30:37.172Z,2.30
2019-01-30T21:33:06.711Z,1.90
2019-01-30T21:35:36.319Z,1.80
2019-01-30T21:38:06.725Z,2.00
2019-01-30T21:40:36.153Z,2.10
2019-01-30T21:43:05.777Z,2.07
2019-01-30T21:45:35.096Z,1.70
2019-01-30T21:48:04.681Z,2.13
2019-01-30T21:50:33.932Z,2.27
2019-01-30T21:53:03.176Z,2.00
2019-01-30T21:55:32.418Z,2.33
2019-01-30T21:58:01.669Z,1.90
2019-01-30T22:00:30.970Z,1.80
2019-01-30T22:03:00.219Z,2.00
2019-01-30T22:05:29.684Z,1.73
2019-01-30T22:08:01.262Z,2.07
2019-01-30T22:10:30.290Z,2.60
2019-01-30T22:12:59.641Z,2.80
2019-01-30T22:15:28.922Z,2.23
2019-01-30T22:17:58.304Z,2.50
2019-01-30T22:20:28.004Z,2.30
2019-01-30T22:22:57.225Z,2.30
2019-01-30T22:25:27.091Z,2.60
2019-01-30T22:27:56.408Z,2.43
2019-01-30T22:30:28.140Z,2.20
2019-01-30T22:32:57.360Z,2.53
2019-01-30T22:35:26.734Z,2.10
2019-01-30T22:37:56.061Z,2.30
2019-01-30T22:40:25.556Z,2.00
2019-01-30T22:42:55.122Z,2.30
2019-01-30T22:45:24.432Z,2.30
2019-01-30T22:47:53.666Z,1.90
2019-01-30T22:50:22.982Z,1.80
2019-01-30T22:52:52.283Z,1.90
2019-01-30T22:55:23.652Z,2.40
2019-01-30T22:57:52.887Z,2.30
2019-01-30T23:00:32.910Z,2.20
2019-01-30T23:03:03.936Z,1.90
2019-01-30T23:05:45.256Z,2.30
2019-01-30T23:08:22.967Z,2.27
2019-01-30T23:11:04.896Z,1.90
2019-01-30T23:13:39.983Z,2.20
2019-01-30T23:16:18.165Z,2.10
2019-01-30T23:18:56.668Z,1.80
2019-01-30T23:21:31.713Z,2.13
2019-01-30T23:24:12.898Z,2.30
2019-01-30T23:26:56.623Z,2.00
2019-01-30T23:29:37.501Z,2.23
2019-01-30T23:32:19.034Z,2.10
2019-01-30T23:35:13.859Z,1.80
2019-01-30T23:37:52.909Z,1.63
2019-01-30T23:40:25.325Z,1.80
2019-01-30T23:43:06.337Z,1.90
2019-01-30T23:45:43.990Z,2.00
2019-01-30T23:48:19.095Z,1.70
2019-01-30T23:51:06.395Z,1.80
2019-01-30T23:53:50.535Z,1.80
2019-01-30T23:56:25.322Z,1.73
2019-01-30T23:59:09.360Z,2.33
